Terminal Aerodrome Forecast
Issued by NWS Wilmington, NC

Home | Current Version | Previous Version | Text Only | Print | Product List | Glossary On
Versions: 1 2 3 4 5 6 7 8 9 10 11 12 13 14 15 16 17 18 19 20 21 22 23 24 25
000
FTUS42 KILM 280611 CCB
TAFFLO
TAF COR
KFLO 280611Z 2806/2906 04008KT P6SM SCT030 BKN050
     FM280900 05004KT 5SM BR SCT004 BKN012
     FM281400 05011KT P6SM SCT020 SCT050
     FM281800 08010KT P6SM VCTS SCT020CB BKN050
     FM290200 VRB03KT P6SM FEW050 SCT250=

USA.gov is the U.S. government's official web portal to all federal, state and local government web resources and services.